sensor_id;sensor_type;location;lat;lon;timestamp;temperature;humidity
573;DHT22;271;51.114;13.780;2023-03-09T00:00:27;3.10;2.00
573;DHT22;271;51.114;13.780;2023-03-09T00:03:15;3.00;3.70
573;DHT22;271;51.114;13.780;2023-03-09T00:06:03;3.00;5.30
573;DHT22;271;51.114;13.780;2023-03-09T00:08:52;3.10;7.60
573;DHT22;271;51.114;13.780;2023-03-09T00:11:40;3.10;6.30
573;DHT22;271;51.114;13.780;2023-03-09T00:14:29;3.10;5.90
573;DHT22;271;51.114;13.780;2023-03-09T00:17:17;3.20;4.40
573;DHT22;271;51.114;13.780;2023-03-09T00:20:06;3.20;5.40
573;DHT22;271;51.114;13.780;2023-03-09T00:23:02;3.20;5.20
573;DHT22;271;51.114;13.780;2023-03-09T00:26:01;3.20;3.20
573;DHT22;271;51.114;13.780;2023-03-09T00:28:49;3.20;4.30
573;DHT22;271;51.114;13.780;2023-03-09T00:31:37;3.20;4.50
573;DHT22;271;51.114;13.780;2023-03-09T00:34:25;3.20;1.20
573;DHT22;271;51.114;13.780;2023-03-09T00:37:13;3.30;3.90
573;DHT22;271;51.114;13.780;2023-03-09T00:40:01;3.20;1.80
573;DHT22;271;51.114;13.780;2023-03-09T00:42:53;3.20;1.00
573;DHT22;271;51.114;13.780;2023-03-09T00:45:41;3.20;1.60
573;DHT22;271;51.114;13.780;2023-03-09T00:48:28;3.10;2.30
573;DHT22;271;51.114;13.780;2023-03-09T00:51:16;3.10;3.40
573;DHT22;271;51.114;13.780;2023-03-09T00:54:05;3.10;4.70
573;DHT22;271;51.114;13.780;2023-03-09T00:56:53;3.20;9.00
573;DHT22;271;51.114;13.780;2023-03-09T00:59:44;3.10;7.40
573;DHT22;271;51.114;13.780;2023-03-09T01:02:32;3.20;8.20
573;DHT22;271;51.114;13.780;2023-03-09T01:05:20;3.20;6.50
573;DHT22;271;51.114;13.780;2023-03-09T01:08:07;3.20;9.20
573;DHT22;271;51.114;13.780;2023-03-09T01:10:55;3.20;8.70
573;DHT22;271;51.114;13.780;2023-03-09T01:13:43;3.20;6.70
573;DHT22;271;51.114;13.780;2023-03-09T01:16:32;3.20;6.50
573;DHT22;271;51.114;13.780;2023-03-09T01:19:20;3.30;7.10
573;DHT22;271;51.114;13.780;2023-03-09T01:22:07;3.30;7.10
573;DHT22;271;51.114;13.780;2023-03-09T01:24:55;3.20;3.60
573;DHT22;271;51.114;13.780;2023-03-09T01:27:43;3.30;5.60
573;DHT22;271;51.114;13.780;2023-03-09T01:30:30;3.30;6.30
573;DHT22;271;51.114;13.780;2023-03-09T01:33:20;3.30;5.60
573;DHT22;271;51.114;13.780;2023-03-09T01:36:11;3.20;5.50
573;DHT22;271;51.114;13.780;2023-03-09T01:38:59;3.20;5.70
573;DHT22;271;51.114;13.780;2023-03-09T01:41:47;3.20;5.60
573;DHT22;271;51.114;13.780;2023-03-09T01:44:34;3.30;6.70
573;DHT22;271;51.114;13.780;2023-03-09T01:47:22;3.30;4.30
573;DHT22;271;51.114;13.780;2023-03-09T01:50:12;3.30;4.80
573;DHT22;271;51.114;13.780;2023-03-09T01:53:04;3.30;6.00
573;DHT22;271;51.114;13.780;2023-03-09T01:55:53;3.30;3.00
573;DHT22;271;51.114;13.780;2023-03-09T01:58:41;3.20;2.60
573;DHT22;271;51.114;13.780;2023-03-09T02:01:29;3.20;4.50
573;DHT22;271;51.114;13.780;2023-03-09T02:04:22;3.30;4.70
573;DHT22;271;51.114;13.780;2023-03-09T02:07:13;3.20;4.70
573;DHT22;271;51.114;13.780;2023-03-09T02:10:08;3.30;6.20
573;DHT22;271;51.114;13.780;2023-03-09T02:13:02;3.30;5.50
573;DHT22;271;51.114;13.780;2023-03-09T02:15:51;3.20;2.20
573;DHT22;271;51.114;13.780;2023-03-09T02:18:38;3.30;3.80
573;DHT22;271;51.114;13.780;2023-03-09T02:21:33;3.20;6.20
573;DHT22;271;51.114;13.780;2023-03-09T02:24:29;3.20;5.40
573;DHT22;271;51.114;13.780;2023-03-09T02:27:20;3.20;8.20
573;DHT22;271;51.114;13.780;2023-03-09T02:30:09;3.30;9.90
573;DHT22;271;51.114;13.780;2023-03-09T02:33:04;3.20;8.80
573;DHT22;271;51.114;13.780;2023-03-09T02:35:52;3.30;12.70
573;DHT22;271;51.114;13.780;2023-03-09T02:38:40;3.30;11.90
573;DHT22;271;51.114;13.780;2023-03-09T02:41:29;3.30;12.80
573;DHT22;271;51.114;13.780;2023-03-09T02:44:19;3.40;14.00
573;DHT22;271;51.114;13.780;2023-03-09T02:47:09;3.40;14.00
573;DHT22;271;51.114;13.780;2023-03-09T02:49:57;3.30;13.10
573;DHT22;271;51.114;13.780;2023-03-09T02:52:45;3.30;14.40
573;DHT22;271;51.114;13.780;2023-03-09T02:55:33;3.20;15.70
573;DHT22;271;51.114;13.780;2023-03-09T02:58:21;3.30;17.30
573;DHT22;271;51.114;13.780;2023-03-09T03:01:10;3.40;18.60
573;DHT22;271;51.114;13.780;2023-03-09T03:03:57;3.50;17.50
573;DHT22;271;51.114;13.780;2023-03-09T03:06:45;3.40;15.60
573;DHT22;271;51.114;13.780;2023-03-09T03:09:33;3.40;15.60
573;DHT22;271;51.114;13.780;2023-03-09T03:12:20;3.40;15.40
573;DHT22;271;51.114;13.780;2023-03-09T03:15:09;3.40;13.50
573;DHT22;271;51.114;13.780;2023-03-09T03:17:59;3.30;11.60
573;DHT22;271;51.114;13.780;2023-03-09T03:20:46;3.30;13.50
573;DHT22;271;51.114;13.780;2023-03-09T03:23:35;3.30;18.00
573;DHT22;271;51.114;13.780;2023-03-09T03:26:23;3.30;17.40
573;DHT22;271;51.114;13.780;2023-03-09T03:29:10;3.30;16.40
573;DHT22;271;51.114;13.780;2023-03-09T03:31:58;3.20;16.00
573;DHT22;271;51.114;13.780;2023-03-09T03:34:47;3.30;18.00
573;DHT22;271;51.114;13.780;2023-03-09T03:37:35;3.20;17.10
573;DHT22;271;51.114;13.780;2023-03-09T03:40:23;3.20;17.90
573;DHT22;271;51.114;13.780;2023-03-09T03:43:10;3.20;19.00
573;DHT22;271;51.114;13.780;2023-03-09T03:45:59;3.10;18.00
573;DHT22;271;51.114;13.780;2023-03-09T03:48:46;3.10;16.50
573;DHT22;271;51.114;13.780;2023-03-09T03:51:36;3.10;16.80
573;DHT22;271;51.114;13.780;2023-03-09T03:54:23;3.10;16.90
573;DHT22;271;51.114;13.780;2023-03-09T03:57:11;3.00;14.80
573;DHT22;271;51.114;13.780;2023-03-09T03:59:59;2.90;14.50
573;DHT22;271;51.114;13.780;2023-03-09T04:02:47;2.90;15.70
573;DHT22;271;51.114;13.780;2023-03-09T04:05:34;3.00;17.80
573;DHT22;271;51.114;13.780;2023-03-09T04:08:23;2.90;18.80
573;DHT22;271;51.114;13.780;2023-03-09T04:11:11;2.90;19.60
573;DHT22;271;51.114;13.780;2023-03-09T04:13:59;2.90;19.10
573;DHT22;271;51.114;13.780;2023-03-09T04:16:47;3.00;19.80
573;DHT22;271;51.114;13.780;2023-03-09T04:19:35;3.00;20.10
573;DHT22;271;51.114;13.780;2023-03-09T04:22:23;2.90;18.80
573;DHT22;271;51.114;13.780;2023-03-09T04:25:12;2.80;17.80
573;DHT22;271;51.114;13.780;2023-03-09T04:28:01;2.90;20.70
573;DHT22;271;51.114;13.780;2023-03-09T04:30:49;2.90;19.10
573;DHT22;271;51.114;13.780;2023-03-09T04:33:36;2.90;18.50
573;DHT22;271;51.114;13.780;2023-03-09T04:36:28;2.90;17.70
573;DHT22;271;51.114;13.780;2023-03-09T04:39:17;2.90;17.00
573;DHT22;271;51.114;13.780;2023-03-09T04:42:06;2.80;20.00
573;DHT22;271;51.114;13.780;2023-03-09T04:44:54;2.80;19.80
573;DHT22;271;51.114;13.780;2023-03-09T04:47:42;2.80;20.00
573;DHT22;271;51.114;13.780;2023-03-09T04:50:30;2.90;21.90
573;DHT22;271;51.114;13.780;2023-03-09T04:53:17;2.90;19.80
573;DHT22;271;51.114;13.780;2023-03-09T04:56:06;3.00;19.50
573;DHT22;271;51.114;13.780;2023-03-09T04:58:55;3.00;19.40
573;DHT22;271;51.114;13.780;2023-03-09T05:01:43;3.00;16.50
573;DHT22;271;51.114;13.780;2023-03-09T05:04:31;2.90;16.90
573;DHT22;271;51.114;13.780;2023-03-09T05:07:19;2.90;19.00
573;DHT22;271;51.114;13.780;2023-03-09T05:10:08;2.80;22.60
573;DHT22;271;51.114;13.780;2023-03-09T05:12:56;2.80;23.80
573;DHT22;271;51.114;13.780;2023-03-09T05:15:45;2.80;26.20
573;DHT22;271;51.114;13.780;2023-03-09T05:18:33;2.90;28.50
573;DHT22;271;51.114;13.780;2023-03-09T05:21:21;3.00;30.80
573;DHT22;271;51.114;13.780;2023-03-09T05:24:08;3.00;28.30
573;DHT22;271;51.114;13.780;2023-03-09T05:26:56;3.00;29.70
573;DHT22;271;51.114;13.780;2023-03-09T05:29:44;3.00;28.10
573;DHT22;271;51.114;13.780;2023-03-09T05:32:33;3.00;27.60
573;DHT22;271;51.114;13.780;2023-03-09T05:35:20;3.10;27.00
573;DHT22;271;51.114;13.780;2023-03-09T05:38:08;3.10;25.60
573;DHT22;271;51.114;13.780;2023-03-09T05:40:56;3.10;25.10
573;DHT22;271;51.114;13.780;2023-03-09T05:43:43;3.20;21.60
573;DHT22;271;51.114;13.780;2023-03-09T05:46:31;3.20;21.00
573;DHT22;271;51.114;13.780;2023-03-09T05:49:20;3.20;20.00
573;DHT22;271;51.114;13.780;2023-03-09T05:52:08;3.20;19.00
573;DHT22;271;51.114;13.780;2023-03-09T05:54:56;3.20;18.50
573;DHT22;271;51.114;13.780;2023-03-09T05:57:43;3.20;17.30
573;DHT22;271;51.114;13.780;2023-03-09T06:00:31;3.30;17.30
573;DHT22;271;51.114;13.780;2023-03-09T06:03:19;3.20;16.00
573;DHT22;271;51.114;13.780;2023-03-09T06:06:09;3.20;18.50
573;DHT22;271;51.114;13.780;2023-03-09T06:08:56;3.20;18.30
573;DHT22;271;51.114;13.780;2023-03-09T06:11:44;3.30;19.00
573;DHT22;271;51.114;13.780;2023-03-09T06:14:32;3.20;17.70
573;DHT22;271;51.114;13.780;2023-03-09T06:17:20;3.20;19.40
573;DHT22;271;51.114;13.780;2023-03-09T06:20:08;3.20;19.60
573;DHT22;271;51.114;13.780;2023-03-09T06:22:58;3.30;20.80
573;DHT22;271;51.114;13.780;2023-03-09T06:25:45;3.30;19.40
573;DHT22;271;51.114;13.780;2023-03-09T06:28:34;3.30;21.30
573;DHT22;271;51.114;13.780;2023-03-09T06:31:22;3.30;21.20
573;DHT22;271;51.114;13.780;2023-03-09T06:34:09;3.30;21.10
573;DHT22;271;51.114;13.780;2023-03-09T06:36:57;3.20;20.60
573;DHT22;271;51.114;13.780;2023-03-09T06:39:46;3.30;23.60
573;DHT22;271;51.114;13.780;2023-03-09T06:42:34;3.30;23.60
573;DHT22;271;51.114;13.780;2023-03-09T06:45:22;3.40;23.70
573;DHT22;271;51.114;13.780;2023-03-09T06:48:10;3.50;25.00
573;DHT22;271;51.114;13.780;2023-03-09T06:50:58;3.40;23.40
573;DHT22;271;51.114;13.780;2023-03-09T06:53:46;3.40;23.10
573;DHT22;271;51.114;13.780;2023-03-09T06:56:35;3.40;23.50
573;DHT22;271;51.114;13.780;2023-03-09T06:59:22;3.40;26.00
573;DHT22;271;51.114;13.780;2023-03-09T07:02:11;3.50;25.80
573;DHT22;271;51.114;13.780;2023-03-09T07:04:59;3.60;26.70
573;DHT22;271;51.114;13.780;2023-03-09T07:07:47;3.60;25.60
573;DHT22;271;51.114;13.780;2023-03-09T07:10:34;3.70;24.70
573;DHT22;271;51.114;13.780;2023-03-09T07:13:24;3.70;22.70
573;DHT22;271;51.114;13.780;2023-03-09T07:16:11;3.70;20.30
573;DHT22;271;51.114;13.780;2023-03-09T07:18:59;3.60;20.20
573;DHT22;271;51.114;13.780;2023-03-09T07:21:47;3.60;19.20
573;DHT22;271;51.114;13.780;2023-03-09T07:24:35;3.60;18.30
573;DHT22;271;51.114;13.780;2023-03-09T07:27:23;3.60;19.50
573;DHT22;271;51.114;13.780;2023-03-09T07:30:12;3.50;20.60
573;DHT22;271;51.114;13.780;2023-03-09T07:33:00;3.50;19.20
573;DHT22;271;51.114;13.780;2023-03-09T07:35:48;3.30;12.30
573;DHT22;271;51.114;13.780;2023-03-09T07:38:36;3.30;13.60
573;DHT22;271;51.114;13.780;2023-03-09T07:41:24;3.20;12.20
573;DHT22;271;51.114;13.780;2023-03-09T07:44:11;3.10;12.70
573;DHT22;271;51.114;13.780;2023-03-09T07:47:00;3.10;12.60
573;DHT22;271;51.114;13.780;2023-03-09T07:49:49;3.00;15.60
573;DHT22;271;51.114;13.780;2023-03-09T07:52:43;3.00;15.30
573;DHT22;271;51.114;13.780;2023-03-09T07:55:30;3.00;16.40
573;DHT22;271;51.114;13.780;2023-03-09T07:58:20;2.90;13.50
573;DHT22;271;51.114;13.780;2023-03-09T08:01:13;2.90;12.90
573;DHT22;271;51.114;13.780;2023-03-09T08:04:03;2.80;12.30
573;DHT22;271;51.114;13.780;2023-03-09T08:06:50;2.80;14.80
573;DHT22;271;51.114;13.780;2023-03-09T08:09:38;2.80;15.20
573;DHT22;271;51.114;13.780;2023-03-09T08:12:26;2.80;19.10
573;DHT22;271;51.114;13.780;2023-03-09T08:15:14;2.90;17.70
573;DHT22;271;51.114;13.780;2023-03-09T08:18:03;3.10;17.10
573;DHT22;271;51.114;13.780;2023-03-09T08:21:02;2.90;17.50
573;DHT22;271;51.114;13.780;2023-03-09T08:23:50;2.90;16.30
573;DHT22;271;51.114;13.780;2023-03-09T08:26:38;3.00;14.50
573;DHT22;271;51.114;13.780;2023-03-09T08:29:26;2.90;9.70
573;DHT22;271;51.114;13.780;2023-03-09T08:32:14;2.80;5.50
573;DHT22;271;51.114;13.780;2023-03-09T08:35:01;2.80;6.70
573;DHT22;271;51.114;13.780;2023-03-09T08:37:50;2.80;7.80
573;DHT22;271;51.114;13.780;2023-03-09T08:40:38;2.90;6.40
573;DHT22;271;51.114;13.780;2023-03-09T08:43:27;2.90;8.10
573;DHT22;271;51.114;13.780;2023-03-09T08:46:15;2.80;8.50
573;DHT22;271;51.114;13.780;2023-03-09T08:49:03;2.90;10.50
573;DHT22;271;51.114;13.780;2023-03-09T08:51:50;2.90;8.90
573;DHT22;271;51.114;13.780;2023-03-09T08:54:41;2.80;2.10
573;DHT22;271;51.114;13.780;2023-03-09T08:57:29;2.80;1.90
573;DHT22;271;51.114;13.780;2023-03-09T09:00:18;2.90;5.90
573;DHT22;271;51.114;13.780;2023-03-09T09:03:06;2.90;4.30
573;DHT22;271;51.114;13.780;2023-03-09T09:05:55;2.80;1.00
573;DHT22;271;51.114;13.780;2023-03-09T09:08:43;2.70;1.00
573;DHT22;271;51.114;13.780;2023-03-09T09:11:35;2.80;1.00
573;DHT22;271;51.114;13.780;2023-03-09T09:14:23;2.60;1.10
573;DHT22;271;51.114;13.780;2023-03-09T09:17:11;2.70;4.70
573;DHT22;271;51.114;13.780;2023-03-09T09:19:59;2.70;5.20
573;DHT22;271;51.114;13.780;2023-03-09T09:22:50;2.70;2.00
573;DHT22;271;51.114;13.780;2023-03-09T09:25:37;2.70;3.60
573;DHT22;271;51.114;13.780;2023-03-09T09:28:29;2.70;5.10
573;DHT22;271;51.114;13.780;2023-03-09T09:31:19;2.90;10.60
573;DHT22;271;51.114;13.780;2023-03-09T09:34:07;3.00;12.20
573;DHT22;271;51.114;13.780;2023-03-09T09:36:54;3.00;9.40
573;DHT22;271;51.114;13.780;2023-03-09T09:39:43;3.10;6.70
573;DHT22;271;51.114;13.780;2023-03-09T09:42:33;3.10;3.00
573;DHT22;271;51.114;13.780;2023-03-09T09:45:27;3.20;2.90
573;DHT22;271;51.114;13.780;2023-03-09T09:48:16;3.00;1.00
573;DHT22;271;51.114;13.780;2023-03-09T09:51:14;2.90;1.00
573;DHT22;271;51.114;13.780;2023-03-09T09:54:27;3.10;1.00
573;DHT22;271;51.114;13.780;2023-03-09T09:57:23;3.10;1.00
573;DHT22;271;51.114;13.780;2023-03-09T10:00:15;3.10;1.00
573;DHT22;271;51.114;13.780;2023-03-09T10:03:27;3.20;1.00
573;DHT22;271;51.114;13.780;2023-03-09T10:06:17;3.20;1.00
573;DHT22;271;51.114;13.780;2023-03-09T10:09:08;3.20;1.00
573;DHT22;271;51.114;13.780;2023-03-09T10:12:00;3.10;1.00
573;DHT22;271;51.114;13.780;2023-03-09T10:14:53;3.10;1.00
573;DHT22;271;51.114;13.780;2023-03-09T10:17:45;3.30;1.00
573;DHT22;271;51.114;13.780;2023-03-09T10:20:53;3.40;1.00
573;DHT22;271;51.114;13.780;2023-03-09T10:23:42;3.60;1.00
573;DHT22;271;51.114;13.780;2023-03-09T10:26:38;3.60;1.00
573;DHT22;271;51.114;13.780;2023-03-09T10:29:38;3.50;1.00
573;DHT22;271;51.114;13.780;2023-03-09T10:32:47;3.40;1.00
573;DHT22;271;51.114;13.780;2023-03-09T10:35:44;3.30;1.00
573;DHT22;271;51.114;13.780;2023-03-09T10:38:36;3.50;1.00
573;DHT22;271;51.114;13.780;2023-03-09T10:41:24;3.70;1.00
573;DHT22;271;51.114;13.780;2023-03-09T10:44:14;3.90;1.00
573;DHT22;271;51.114;13.780;2023-03-09T10:47:03;4.00;1.00
573;DHT22;271;51.114;13.780;2023-03-09T10:50:09;3.90;1.00
573;DHT22;271;51.114;13.780;2023-03-09T10:53:21;3.80;1.00
573;DHT22;271;51.114;13.780;2023-03-09T10:56:20;3.80;1.00
573;DHT22;271;51.114;13.780;2023-03-09T10:59:14;4.00;1.00
573;DHT22;271;51.114;13.780;2023-03-09T11:02:22;4.00;1.00
573;DHT22;271;51.114;13.780;2023-03-09T11:05:23;4.10;1.00
573;DHT22;271;51.114;13.780;2023-03-09T11:08:22;4.20;1.00
573;DHT22;271;51.114;13.780;2023-03-09T11:11:17;4.30;1.00
573;DHT22;271;51.114;13.780;2023-03-09T11:14:21;4.20;1.00
573;DHT22;271;51.114;13.780;2023-03-09T11:20:37;4.10;1.00
573;DHT22;271;51.114;13.780;2023-03-09T11:23:27;4.00;1.00
573;DHT22;271;51.114;13.780;2023-03-09T11:26:22;4.00;1.00
573;DHT22;271;51.114;13.780;2023-03-09T11:29:20;4.10;1.00
573;DHT22;271;51.114;13.780;2023-03-09T11:32:21;4.20;1.00
573;DHT22;271;51.114;13.780;2023-03-09T11:35:12;4.20;1.00
573;DHT22;271;51.114;13.780;2023-03-09T11:38:04;4.20;1.00
573;DHT22;271;51.114;13.780;2023-03-09T11:41:00;4.30;1.00
573;DHT22;271;51.114;13.780;2023-03-09T11:43:54;4.20;1.00
573;DHT22;271;51.114;13.780;2023-03-09T11:46:42;4.20;1.00
573;DHT22;271;51.114;13.780;2023-03-09T11:49:32;4.20;1.00
573;DHT22;271;51.114;13.780;2023-03-09T11:52:39;4.20;1.00
573;DHT22;271;51.114;13.780;2023-03-09T11:55:34;4.30;1.00
573;DHT22;271;51.114;13.780;2023-03-09T11:58:27;4.50;1.00
573;DHT22;271;51.114;13.780;2023-03-09T12:01:21;4.50;1.00
573;DHT22;271;51.114;13.780;2023-03-09T12:04:27;4.50;1.00
573;DHT22;271;51.114;13.780;2023-03-09T12:07:20;4.50;1.00
573;DHT22;271;51.114;13.780;2023-03-09T12:10:14;4.60;1.00
573;DHT22;271;51.114;13.780;2023-03-09T12:13:12;4.60;1.00
573;DHT22;271;51.114;13.780;2023-03-09T12:16:18;4.60;1.00
573;DHT22;271;51.114;13.780;2023-03-09T12:19:15;4.60;1.00
573;DHT22;271;51.114;13.780;2023-03-09T12:22:06;4.40;1.00
573;DHT22;271;51.114;13.780;2023-03-09T12:24:56;4.40;1.00
573;DHT22;271;51.114;13.780;2023-03-09T12:27:48;4.50;1.00
573;DHT22;271;51.114;13.780;2023-03-09T12:30:59;4.40;1.00
573;DHT22;271;51.114;13.780;2023-03-09T12:34:23;4.40;1.00
573;DHT22;271;51.114;13.780;2023-03-09T12:40:35;4.50;1.00
573;DHT22;271;51.114;13.780;2023-03-09T12:43:44;4.50;1.00
573;DHT22;271;51.114;13.780;2023-03-09T12:46:53;4.50;1.00
573;DHT22;271;51.114;13.780;2023-03-09T12:49:48;4.50;1.00
573;DHT22;271;51.114;13.780;2023-03-09T12:52:48;4.50;1.00
573;DHT22;271;51.114;13.780;2023-03-09T12:55:48;4.50;1.00
573;DHT22;271;51.114;13.780;2023-03-09T12:58:40;4.60;1.00
573;DHT22;271;51.114;13.780;2023-03-09T13:01:31;4.60;1.00
573;DHT22;271;51.114;13.780;2023-03-09T13:04:22;4.70;1.00
573;DHT22;271;51.114;13.780;2023-03-09T13:07:16;4.80;1.00
573;DHT22;271;51.114;13.780;2023-03-09T13:10:06;4.70;1.00
573;DHT22;271;51.114;13.780;2023-03-09T13:12:55;4.80;1.00
573;DHT22;271;51.114;13.780;2023-03-09T13:15:43;4.80;1.00
573;DHT22;271;51.114;13.780;2023-03-09T13:18:31;4.90;1.00
573;DHT22;271;51.114;13.780;2023-03-09T13:21:41;4.80;1.00
573;DHT22;271;51.114;13.780;2023-03-09T13:24:35;4.90;1.00
573;DHT22;271;51.114;13.780;2023-03-09T13:27:26;5.00;1.00
573;DHT22;271;51.114;13.780;2023-03-09T13:30:19;5.20;1.00
573;DHT22;271;51.114;13.780;2023-03-09T13:33:29;5.40;1.00
573;DHT22;271;51.114;13.780;2023-03-09T13:36:19;5.50;1.00
573;DHT22;271;51.114;13.780;2023-03-09T13:39:16;5.50;1.00
573;DHT22;271;51.114;13.780;2023-03-09T13:42:06;5.50;1.00
573;DHT22;271;51.114;13.780;2023-03-09T13:44:55;5.60;1.00
573;DHT22;271;51.114;13.780;2023-03-09T13:47:43;5.60;1.00
573;DHT22;271;51.114;13.780;2023-03-09T13:50:33;5.40;1.00
573;DHT22;271;51.114;13.780;2023-03-09T13:53:24;5.40;1.00
573;DHT22;271;51.114;13.780;2023-03-09T13:56:14;5.40;1.00
573;DHT22;271;51.114;13.780;2023-03-09T13:59:02;5.40;1.00
573;DHT22;271;51.114;13.780;2023-03-09T14:01:50;5.50;1.00
573;DHT22;271;51.114;13.780;2023-03-09T14:04:45;5.50;1.00
573;DHT22;271;51.114;13.780;2023-03-09T14:07:49;5.60;1.00
573;DHT22;271;51.114;13.780;2023-03-09T14:10:39;5.60;1.00
573;DHT22;271;51.114;13.780;2023-03-09T14:13:29;5.60;1.00
573;DHT22;271;51.114;13.780;2023-03-09T14:16:17;5.60;1.00
573;DHT22;271;51.114;13.780;2023-03-09T14:19:05;5.60;1.00
573;DHT22;271;51.114;13.780;2023-03-09T14:21:53;5.50;1.00
573;DHT22;271;51.114;13.780;2023-03-09T14:24:41;5.50;1.00
573;DHT22;271;51.114;13.780;2023-03-09T14:27:31;5.50;1.00
573;DHT22;271;51.114;13.780;2023-03-09T14:30:33;5.40;1.00
573;DHT22;271;51.114;13.780;2023-03-09T14:34:01;5.50;1.00
573;DHT22;271;51.114;13.780;2023-03-09T14:36:51;5.40;1.00
573;DHT22;271;51.114;13.780;2023-03-09T14:39:45;5.30;1.00
573;DHT22;271;51.114;13.780;2023-03-09T14:42:44;5.50;1.00
573;DHT22;271;51.114;13.780;2023-03-09T14:45:33;5.40;1.00
573;DHT22;271;51.114;13.780;2023-03-09T14:48:21;5.40;1.00
573;DHT22;271;51.114;13.780;2023-03-09T14:51:12;5.40;1.00
573;DHT22;271;51.114;13.780;2023-03-09T14:54:02;5.50;1.00
573;DHT22;271;51.114;13.780;2023-03-09T14:56:56;5.60;1.00
573;DHT22;271;51.114;13.780;2023-03-09T14:59:44;5.60;1.00
573;DHT22;271;51.114;13.780;2023-03-09T15:02:34;5.60;1.00
573;DHT22;271;51.114;13.780;2023-03-09T15:05:24;5.50;1.00
573;DHT22;271;51.114;13.780;2023-03-09T15:08:11;5.60;1.00
573;DHT22;271;51.114;13.780;2023-03-09T15:11:00;5.60;1.00
573;DHT22;271;51.114;13.780;2023-03-09T15:13:49;5.60;1.00
573;DHT22;271;51.114;13.780;2023-03-09T15:16:38;5.60;1.00
573;DHT22;271;51.114;13.780;2023-03-09T15:19:27;5.70;1.00
573;DHT22;271;51.114;13.780;2023-03-09T15:22:16;5.70;1.00
573;DHT22;271;51.114;13.780;2023-03-09T15:25:05;5.70;1.00
573;DHT22;271;51.114;13.780;2023-03-09T15:27:54;5.60;1.00
573;DHT22;271;51.114;13.780;2023-03-09T15:30:41;5.50;1.00
573;DHT22;271;51.114;13.780;2023-03-09T15:33:29;5.50;1.00
573;DHT22;271;51.114;13.780;2023-03-09T15:36:18;5.50;1.00
573;DHT22;271;51.114;13.780;2023-03-09T15:39:07;5.50;1.00
573;DHT22;271;51.114;13.780;2023-03-09T15:41:56;5.40;1.00
573;DHT22;271;51.114;13.780;2023-03-09T15:44:43;5.50;1.00
573;DHT22;271;51.114;13.780;2023-03-09T15:47:31;5.50;1.00
573;DHT22;271;51.114;13.780;2023-03-09T15:50:19;5.50;1.00
573;DHT22;271;51.114;13.780;2023-03-09T15:53:10;5.50;1.00
573;DHT22;271;51.114;13.780;2023-03-09T15:55:59;5.50;1.00
573;DHT22;271;51.114;13.780;2023-03-09T15:58:48;5.50;1.00
573;DHT22;271;51.114;13.780;2023-03-09T16:01:35;5.50;1.40
573;DHT22;271;51.114;13.780;2023-03-09T16:04:23;5.50;1.70
573;DHT22;271;51.114;13.780;2023-03-09T16:07:12;5.60;1.30
573;DHT22;271;51.114;13.780;2023-03-09T16:10:01;5.50;1.00
573;DHT22;271;51.114;13.780;2023-03-09T16:12:50;5.50;1.00
573;DHT22;271;51.114;13.780;2023-03-09T16:15:38;5.60;1.80
573;DHT22;271;51.114;13.780;2023-03-09T16:18:27;5.70;2.90
573;DHT22;271;51.114;13.780;2023-03-09T16:21:16;5.70;1.00
573;DHT22;271;51.114;13.780;2023-03-09T16:24:05;5.60;1.00
573;DHT22;271;51.114;13.780;2023-03-09T16:26:54;5.70;1.00
573;DHT22;271;51.114;13.780;2023-03-09T16:29:42;5.60;1.00
573;DHT22;271;51.114;13.780;2023-03-09T16:32:31;5.50;1.00
573;DHT22;271;51.114;13.780;2023-03-09T16:35:19;5.50;1.00
573;DHT22;271;51.114;13.780;2023-03-09T16:38:22;5.50;1.00
573;DHT22;271;51.114;13.780;2023-03-09T16:41:13;5.50;1.00
573;DHT22;271;51.114;13.780;2023-03-09T16:44:13;5.40;1.00
573;DHT22;271;51.114;13.780;2023-03-09T16:47:01;5.40;2.50
573;DHT22;271;51.114;13.780;2023-03-09T16:49:56;5.40;4.60
573;DHT22;271;51.114;13.780;2023-03-09T16:52:50;5.30;2.20
573;DHT22;271;51.114;13.780;2023-03-09T16:55:39;5.30;4.10
573;DHT22;271;51.114;13.780;2023-03-09T16:58:29;5.30;6.50
573;DHT22;271;51.114;13.780;2023-03-09T17:01:18;5.30;5.60
573;DHT22;271;51.114;13.780;2023-03-09T17:04:06;5.30;7.80
573;DHT22;271;51.114;13.780;2023-03-09T17:06:55;5.40;7.80
573;DHT22;271;51.114;13.780;2023-03-09T17:09:42;5.40;6.50
573;DHT22;271;51.114;13.780;2023-03-09T17:12:30;5.30;4.50
573;DHT22;271;51.114;13.780;2023-03-09T17:15:19;5.30;6.30
573;DHT22;271;51.114;13.780;2023-03-09T17:18:09;5.30;6.30
573;DHT22;271;51.114;13.780;2023-03-09T17:20:56;5.30;7.20
573;DHT22;271;51.114;13.780;2023-03-09T17:23:44;5.30;7.80
573;DHT22;271;51.114;13.780;2023-03-09T17:26:34;5.20;11.20
573;DHT22;271;51.114;13.780;2023-03-09T17:29:21;5.30;13.20
573;DHT22;271;51.114;13.780;2023-03-09T17:32:10;5.40;14.50
573;DHT22;271;51.114;13.780;2023-03-09T17:34:59;5.30;10.40
573;DHT22;271;51.114;13.780;2023-03-09T17:37:49;5.30;9.50
573;DHT22;271;51.114;13.780;2023-03-09T17:40:39;5.30;9.90
573;DHT22;271;51.114;13.780;2023-03-09T17:43:28;5.30;9.60
573;DHT22;271;51.114;13.780;2023-03-09T17:46:16;5.30;11.10
573;DHT22;271;51.114;13.780;2023-03-09T17:49:04;5.30;10.10
573;DHT22;271;51.114;13.780;2023-03-09T17:51:53;5.30;10.10
573;DHT22;271;51.114;13.780;2023-03-09T17:54:42;5.20;11.10
573;DHT22;271;51.114;13.780;2023-03-09T17:57:29;5.10;10.60
573;DHT22;271;51.114;13.780;2023-03-09T18:00:18;5.10;13.40
573;DHT22;271;51.114;13.780;2023-03-09T18:03:06;5.10;16.20
573;DHT22;271;51.114;13.780;2023-03-09T18:05:53;5.20;16.90
573;DHT22;271;51.114;13.780;2023-03-09T18:08:43;5.20;15.00
573;DHT22;271;51.114;13.780;2023-03-09T18:11:32;5.10;16.40
573;DHT22;271;51.114;13.780;2023-03-09T18:14:20;5.20;17.10
573;DHT22;271;51.114;13.780;2023-03-09T18:17:08;5.10;16.10
573;DHT22;271;51.114;13.780;2023-03-09T18:19:56;5.20;18.20
573;DHT22;271;51.114;13.780;2023-03-09T18:22:43;5.20;19.70
573;DHT22;271;51.114;13.780;2023-03-09T18:25:32;5.20;17.00
573;DHT22;271;51.114;13.780;2023-03-09T18:28:22;5.20;14.80
573;DHT22;271;51.114;13.780;2023-03-09T18:31:10;5.10;13.40
573;DHT22;271;51.114;13.780;2023-03-09T18:33:58;5.10;15.50
573;DHT22;271;51.114;13.780;2023-03-09T18:36:45;5.10;15.00
573;DHT22;271;51.114;13.780;2023-03-09T18:39:33;5.10;14.50
573;DHT22;271;51.114;13.780;2023-03-09T18:42:23;5.00;16.20
573;DHT22;271;51.114;13.780;2023-03-09T18:45:12;5.20;17.10
573;DHT22;271;51.114;13.780;2023-03-09T18:48:01;5.10;18.70
573;DHT22;271;51.114;13.780;2023-03-09T18:50:51;5.10;18.00
573;DHT22;271;51.114;13.780;2023-03-09T18:53:40;5.20;18.90
573;DHT22;271;51.114;13.780;2023-03-09T18:56:28;5.10;16.60
573;DHT22;271;51.114;13.780;2023-03-09T18:59:17;5.10;16.60
573;DHT22;271;51.114;13.780;2023-03-09T19:02:04;5.10;17.00
573;DHT22;271;51.114;13.780;2023-03-09T19:04:53;5.10;18.70
573;DHT22;271;51.114;13.780;2023-03-09T19:07:42;5.30;18.10
573;DHT22;271;51.114;13.780;2023-03-09T19:10:29;5.20;16.70
573;DHT22;271;51.114;13.780;2023-03-09T19:13:17;5.00;16.00
573;DHT22;271;51.114;13.780;2023-03-09T19:16:07;5.00;19.40
573;DHT22;271;51.114;13.780;2023-03-09T19:18:55;5.10;20.40
573;DHT22;271;51.114;13.780;2023-03-09T19:21:42;5.10;22.30
573;DHT22;271;51.114;13.780;2023-03-09T19:24:30;5.10;21.10
573;DHT22;271;51.114;13.780;2023-03-09T19:27:18;5.10;23.10